sensor_id;sensor_type;location;lat;lon;timestamp;temperature;humidity
13211;DHT22;6670;51.53087800;7.23266500;2023-08-12T00:01:23;22.50;99.90
13211;DHT22;6670;51.53087800;7.23266500;2023-08-12T00:03:51;22.50;99.90
13211;DHT22;6670;51.53087800;7.23266500;2023-08-12T00:06:19;22.40;99.90
13211;DHT22;6670;51.53087800;7.23266500;2023-08-12T00:08:46;22.40;99.90
13211;DHT22;6670;51.53087800;7.23266500;2023-08-12T00:11:14;22.40;99.90
13211;DHT22;6670;51.53087800;7.23266500;2023-08-12T00:13:41;22.30;99.90
13211;DHT22;6670;51.53087800;7.23266500;2023-08-12T00:16:10;22.10;99.90
13211;DHT22;6670;51.53087800;7.23266500;2023-08-12T00:18:38;22.20;99.90
13211;DHT22;6670;51.53087800;7.23266500;2023-08-12T00:21:07;22.30;99.90
13211;DHT22;6670;51.53087800;7.23266500;2023-08-12T00:23:39;22.20;99.90
13211;DHT22;6670;51.53087800;7.23266500;2023-08-12T00:26:07;22.30;99.90
13211;DHT22;6670;51.53087800;7.23266500;2023-08-12T00:28:34;22.40;99.90
13211;DHT22;6670;51.53087800;7.23266500;2023-08-12T00:31:02;22.30;99.90
13211;DHT22;6670;51.53087800;7.23266500;2023-08-12T00:33:31;22.30;99.90
13211;DHT22;6670;51.53087800;7.23266500;2023-08-12T00:35:59;22.30;99.90
13211;DHT22;6670;51.53087800;7.23266500;2023-08-12T00:38:28;22.30;99.90
13211;DHT22;6670;51.53087800;7.23266500;2023-08-12T00:40:55;22.30;99.90
13211;DHT22;6670;51.53087800;7.23266500;2023-08-12T00:43:24;22.20;99.90
13211;DHT22;6670;51.53087800;7.23266500;2023-08-12T00:45:52;22.10;99.90
13211;DHT22;6670;51.53087800;7.23266500;2023-08-12T00:48:19;22.20;99.90
13211;DHT22;6670;51.53087800;7.23266500;2023-08-12T00:50:49;22.20;99.90
13211;DHT22;6670;51.53087800;7.23266500;2023-08-12T00:53:17;22.30;99.90
13211;DHT22;6670;51.53087800;7.23266500;2023-08-12T00:55:45;22.30;99.90
13211;DHT22;6670;51.53087800;7.23266500;2023-08-12T00:58:12;22.30;99.90
13211;DHT22;6670;51.53087800;7.23266500;2023-08-12T01:00:41;22.20;99.90
13211;DHT22;6670;51.53087800;7.23266500;2023-08-12T01:03:09;21.90;99.90
13211;DHT22;6670;51.53087800;7.23266500;2023-08-12T01:05:37;21.80;99.90
13211;DHT22;6670;51.53087800;7.23266500;2023-08-12T01:08:06;21.90;99.90
13211;DHT22;6670;51.53087800;7.23266500;2023-08-12T01:10:36;21.90;99.90
13211;DHT22;6670;51.53087800;7.23266500;2023-08-12T01:13:16;21.90;99.90
13211;DHT22;6670;51.53087800;7.23266500;2023-08-12T01:15:45;21.90;99.90
13211;DHT22;6670;51.53087800;7.23266500;2023-08-12T01:18:14;21.80;99.90
13211;DHT22;6670;51.53087800;7.23266500;2023-08-12T01:20:41;21.90;99.90
13211;DHT22;6670;51.53087800;7.23266500;2023-08-12T01:23:12;21.90;99.90
13211;DHT22;6670;51.53087800;7.23266500;2023-08-12T01:25:40;22.00;99.90
13211;DHT22;6670;51.53087800;7.23266500;2023-08-12T01:28:08;22.10;99.90
13211;DHT22;6670;51.53087800;7.23266500;2023-08-12T01:30:41;22.20;99.90
13211;DHT22;6670;51.53087800;7.23266500;2023-08-12T01:33:17;22.20;99.90
13211;DHT22;6670;51.53087800;7.23266500;2023-08-12T01:35:51;22.20;99.90
13211;DHT22;6670;51.53087800;7.23266500;2023-08-12T01:38:22;22.10;99.90
13211;DHT22;6670;51.53087800;7.23266500;2023-08-12T01:40:52;22.10;99.90
13211;DHT22;6670;51.53087800;7.23266500;2023-08-12T01:43:21;22.00;99.90
13211;DHT22;6670;51.53087800;7.23266500;2023-08-12T01:45:49;22.00;99.90
13211;DHT22;6670;51.53087800;7.23266500;2023-08-12T01:48:17;22.00;99.90
13211;DHT22;6670;51.53087800;7.23266500;2023-08-12T01:50:46;22.10;99.90
13211;DHT22;6670;51.53087800;7.23266500;2023-08-12T01:53:14;22.10;99.90
13211;DHT22;6670;51.53087800;7.23266500;2023-08-12T01:55:44;22.20;99.90
13211;DHT22;6670;51.53087800;7.23266500;2023-08-12T01:58:12;22.10;99.90
13211;DHT22;6670;51.53087800;7.23266500;2023-08-12T02:00:39;22.10;99.90
13211;DHT22;6670;51.53087800;7.23266500;2023-08-12T02:03:07;22.10;99.90
13211;DHT22;6670;51.53087800;7.23266500;2023-08-12T02:05:34;22.10;99.90
13211;DHT22;6670;51.53087800;7.23266500;2023-08-12T02:08:04;22.10;99.90
13211;DHT22;6670;51.53087800;7.23266500;2023-08-12T02:10:34;22.10;99.90
13211;DHT22;6670;51.53087800;7.23266500;2023-08-12T02:13:03;22.00;99.90
13211;DHT22;6670;51.53087800;7.23266500;2023-08-12T02:15:31;21.90;99.90
13211;DHT22;6670;51.53087800;7.23266500;2023-08-12T02:17:59;21.80;99.90
13211;DHT22;6670;51.53087800;7.23266500;2023-08-12T02:20:27;21.80;99.90
13211;DHT22;6670;51.53087800;7.23266500;2023-08-12T02:22:54;21.80;99.90
13211;DHT22;6670;51.53087800;7.23266500;2023-08-12T02:25:22;21.90;99.90
13211;DHT22;6670;51.53087800;7.23266500;2023-08-12T02:27:49;22.00;99.90
13211;DHT22;6670;51.53087800;7.23266500;2023-08-12T02:30:18;21.90;99.90
13211;DHT22;6670;51.53087800;7.23266500;2023-08-12T02:32:46;22.00;99.90
13211;DHT22;6670;51.53087800;7.23266500;2023-08-12T02:35:13;22.10;99.90
13211;DHT22;6670;51.53087800;7.23266500;2023-08-12T02:37:41;22.10;99.90
13211;DHT22;6670;51.53087800;7.23266500;2023-08-12T02:40:09;22.10;99.90
13211;DHT22;6670;51.53087800;7.23266500;2023-08-12T02:42:37;22.00;99.90
13211;DHT22;6670;51.53087800;7.23266500;2023-08-12T02:45:05;21.70;99.90
13211;DHT22;6670;51.53087800;7.23266500;2023-08-12T02:47:34;21.50;99.90
13211;DHT22;6670;51.53087800;7.23266500;2023-08-12T02:50:02;21.50;99.90
13211;DHT22;6670;51.53087800;7.23266500;2023-08-12T02:52:30;21.40;99.90
13211;DHT22;6670;51.53087800;7.23266500;2023-08-12T02:54:58;21.30;99.90
13211;DHT22;6670;51.53087800;7.23266500;2023-08-12T02:57:26;21.30;99.90
13211;DHT22;6670;51.53087800;7.23266500;2023-08-12T02:59:53;21.40;99.90
13211;DHT22;6670;51.53087800;7.23266500;2023-08-12T03:02:21;21.50;99.90
13211;DHT22;6670;51.53087800;7.23266500;2023-08-12T03:04:50;21.60;99.90
13211;DHT22;6670;51.53087800;7.23266500;2023-08-12T03:07:20;21.50;99.90
13211;DHT22;6670;51.53087800;7.23266500;2023-08-12T03:09:48;21.50;99.90
13211;DHT22;6670;51.53087800;7.23266500;2023-08-12T03:12:15;21.40;99.90
13211;DHT22;6670;51.53087800;7.23266500;2023-08-12T03:14:43;21.40;99.90
13211;DHT22;6670;51.53087800;7.23266500;2023-08-12T03:17:10;21.30;99.90
13211;DHT22;6670;51.53087800;7.23266500;2023-08-12T03:19:38;21.40;99.90
13211;DHT22;6670;51.53087800;7.23266500;2023-08-12T03:22:07;21.30;99.90
13211;DHT22;6670;51.53087800;7.23266500;2023-08-12T03:24:37;21.20;99.90
13211;DHT22;6670;51.53087800;7.23266500;2023-08-12T03:27:05;21.20;99.90
13211;DHT22;6670;51.53087800;7.23266500;2023-08-12T03:29:32;21.20;99.90
13211;DHT22;6670;51.53087800;7.23266500;2023-08-12T03:32:00;21.20;99.90
13211;DHT22;6670;51.53087800;7.23266500;2023-08-12T03:34:28;21.30;99.90
13211;DHT22;6670;51.53087800;7.23266500;2023-08-12T03:36:57;21.30;99.90
13211;DHT22;6670;51.53087800;7.23266500;2023-08-12T03:39:26;21.40;99.90
13211;DHT22;6670;51.53087800;7.23266500;2023-08-12T03:41:55;21.50;99.90
13211;DHT22;6670;51.53087800;7.23266500;2023-08-12T03:44:22;21.60;99.90
13211;DHT22;6670;51.53087800;7.23266500;2023-08-12T03:46:55;21.60;99.90
13211;DHT22;6670;51.53087800;7.23266500;2023-08-12T03:49:23;21.40;99.90
13211;DHT22;6670;51.53087800;7.23266500;2023-08-12T03:51:51;21.30;99.90
13211;DHT22;6670;51.53087800;7.23266500;2023-08-12T03:54:18;21.30;99.90
13211;DHT22;6670;51.53087800;7.23266500;2023-08-12T03:56:47;21.30;99.90
13211;DHT22;6670;51.53087800;7.23266500;2023-08-12T03:59:14;21.30;99.90
13211;DHT22;6670;51.53087800;7.23266500;2023-08-12T04:01:42;21.20;99.90
13211;DHT22;6670;51.53087800;7.23266500;2023-08-12T04:04:09;21.30;99.90
13211;DHT22;6670;51.53087800;7.23266500;2023-08-12T04:06:37;21.30;99.90
13211;DHT22;6670;51.53087800;7.23266500;2023-08-12T04:09:05;21.30;99.90
13211;DHT22;6670;51.53087800;7.23266500;2023-08-12T04:11:32;21.30;99.90
13211;DHT22;6670;51.53087800;7.23266500;2023-08-12T04:14:01;21.30;99.90
13211;DHT22;6670;51.53087800;7.23266500;2023-08-12T04:16:29;21.30;99.90
13211;DHT22;6670;51.53087800;7.23266500;2023-08-12T04:18:56;21.30;99.90
13211;DHT22;6670;51.53087800;7.23266500;2023-08-12T04:21:24;21.30;99.90
13211;DHT22;6670;51.53087800;7.23266500;2023-08-12T04:23:51;21.30;99.90
13211;DHT22;6670;51.53087800;7.23266500;2023-08-12T04:26:19;21.50;99.90
13211;DHT22;6670;51.53087800;7.23266500;2023-08-12T04:28:47;21.40;99.90
13211;DHT22;6670;51.53087800;7.23266500;2023-08-12T04:31:15;21.50;99.90
13211;DHT22;6670;51.53087800;7.23266500;2023-08-12T04:33:44;21.50;99.90
13211;DHT22;6670;51.53087800;7.23266500;2023-08-12T04:36:12;21.50;99.90
13211;DHT22;6670;51.53087800;7.23266500;2023-08-12T04:38:39;21.60;99.90
13211;DHT22;6670;51.53087800;7.23266500;2023-08-12T04:41:09;21.50;99.90
13211;DHT22;6670;51.53087800;7.23266500;2023-08-12T04:43:37;21.40;99.90
13211;DHT22;6670;51.53087800;7.23266500;2023-08-12T04:46:05;21.40;99.90
13211;DHT22;6670;51.53087800;7.23266500;2023-08-12T04:48:35;21.30;99.90
13211;DHT22;6670;51.53087800;7.23266500;2023-08-12T04:51:03;21.30;99.90
13211;DHT22;6670;51.53087800;7.23266500;2023-08-12T04:53:33;21.30;99.90
13211;DHT22;6670;51.53087800;7.23266500;2023-08-12T04:56:01;21.50;99.90
13211;DHT22;6670;51.53087800;7.23266500;2023-08-12T04:58:32;21.40;99.90
13211;DHT22;6670;51.53087800;7.23266500;2023-08-12T05:01:13;21.30;99.90
13211;DHT22;6670;51.53087800;7.23266500;2023-08-12T05:03:43;21.20;99.90
13211;DHT22;6670;51.53087800;7.23266500;2023-08-12T05:06:13;21.10;99.90
13211;DHT22;6670;51.53087800;7.23266500;2023-08-12T05:08:44;21.10;99.90
13211;DHT22;6670;51.53087800;7.23266500;2023-08-12T05:11:13;21.10;99.90
13211;DHT22;6670;51.53087800;7.23266500;2023-08-12T05:13:40;21.10;99.90
13211;DHT22;6670;51.53087800;7.23266500;2023-08-12T05:16:20;21.00;99.90
13211;DHT22;6670;51.53087800;7.23266500;2023-08-12T05:18:51;21.20;99.90
13211;DHT22;6670;51.53087800;7.23266500;2023-08-12T05:21:19;21.40;99.90
13211;DHT22;6670;51.53087800;7.23266500;2023-08-12T05:23:46;21.40;99.90
13211;DHT22;6670;51.53087800;7.23266500;2023-08-12T05:26:14;21.40;99.90
13211;DHT22;6670;51.53087800;7.23266500;2023-08-12T05:28:42;21.40;99.90
13211;DHT22;6670;51.53087800;7.23266500;2023-08-12T05:31:11;21.40;99.90
13211;DHT22;6670;51.53087800;7.23266500;2023-08-12T05:33:39;21.40;99.90
13211;DHT22;6670;51.53087800;7.23266500;2023-08-12T05:36:08;21.50;99.90
13211;DHT22;6670;51.53087800;7.23266500;2023-08-12T05:38:36;21.50;99.90
13211;DHT22;6670;51.53087800;7.23266500;2023-08-12T05:41:03;21.50;99.90
13211;DHT22;6670;51.53087800;7.23266500;2023-08-12T05:43:34;21.70;99.90
13211;DHT22;6670;51.53087800;7.23266500;2023-08-12T05:46:02;21.60;99.90
13211;DHT22;6670;51.53087800;7.23266500;2023-08-12T05:48:29;21.70;99.90
13211;DHT22;6670;51.53087800;7.23266500;2023-08-12T05:50:57;21.70;99.90
13211;DHT22;6670;51.53087800;7.23266500;2023-08-12T05:53:26;21.70;99.90
13211;DHT22;6670;51.53087800;7.23266500;2023-08-12T05:55:55;21.60;99.90
13211;DHT22;6670;51.53087800;7.23266500;2023-08-12T05:58:25;21.70;99.90
13211;DHT22;6670;51.53087800;7.23266500;2023-08-12T06:00:58;21.70;99.90
13211;DHT22;6670;51.53087800;7.23266500;2023-08-12T06:03:28;21.80;99.90
13211;DHT22;6670;51.53087800;7.23266500;2023-08-12T06:05:56;21.80;99.90
13211;DHT22;6670;51.53087800;7.23266500;2023-08-12T06:08:23;21.80;99.90
13211;DHT22;6670;51.53087800;7.23266500;2023-08-12T06:10:52;21.70;99.90
13211;DHT22;6670;51.53087800;7.23266500;2023-08-12T06:13:20;21.70;99.90
13211;DHT22;6670;51.53087800;7.23266500;2023-08-12T06:15:47;21.80;99.90
13211;DHT22;6670;51.53087800;7.23266500;2023-08-12T06:18:15;21.70;99.90
13211;DHT22;6670;51.53087800;7.23266500;2023-08-12T06:20:42;21.70;99.90
13211;DHT22;6670;51.53087800;7.23266500;2023-08-12T06:23:09;21.70;99.90
13211;DHT22;6670;51.53087800;7.23266500;2023-08-12T06:25:37;21.60;99.90
13211;DHT22;6670;51.53087800;7.23266500;2023-08-12T06:28:06;21.60;99.90
13211;DHT22;6670;51.53087800;7.23266500;2023-08-12T06:30:35;21.60;99.90
13211;DHT22;6670;51.53087800;7.23266500;2023-08-12T06:33:03;21.60;99.90
13211;DHT22;6670;51.53087800;7.23266500;2023-08-12T06:35:31;21.60;99.90
13211;DHT22;6670;51.53087800;7.23266500;2023-08-12T06:37:59;21.50;99.90
13211;DHT22;6670;51.53087800;7.23266500;2023-08-12T06:40:26;21.60;99.90
13211;DHT22;6670;51.53087800;7.23266500;2023-08-12T06:42:54;21.60;99.90
13211;DHT22;6670;51.53087800;7.23266500;2023-08-12T06:45:23;21.50;99.90
13211;DHT22;6670;51.53087800;7.23266500;2023-08-12T06:47:50;21.60;99.90
13211;DHT22;6670;51.53087800;7.23266500;2023-08-12T06:50:17;21.60;99.90
13211;DHT22;6670;51.53087800;7.23266500;2023-08-12T06:52:45;21.60;99.90
13211;DHT22;6670;51.53087800;7.23266500;2023-08-12T06:55:12;21.60;99.90
13211;DHT22;6670;51.53087800;7.23266500;2023-08-12T06:57:40;21.60;99.90
13211;DHT22;6670;51.53087800;7.23266500;2023-08-12T07:00:08;21.50;99.90
13211;DHT22;6670;51.53087800;7.23266500;2023-08-12T07:02:37;21.60;99.90
13211;DHT22;6670;51.53087800;7.23266500;2023-08-12T07:05:06;21.50;99.90
13211;DHT22;6670;51.53087800;7.23266500;2023-08-12T07:07:34;21.50;99.90
13211;DHT22;6670;51.53087800;7.23266500;2023-08-12T07:10:01;21.50;99.90
13211;DHT22;6670;51.53087800;7.23266500;2023-08-12T07:12:29;21.50;99.90
13211;DHT22;6670;51.53087800;7.23266500;2023-08-12T07:14:57;21.40;99.90
13211;DHT22;6670;51.53087800;7.23266500;2023-08-12T07:17:26;21.30;99.90
13211;DHT22;6670;51.53087800;7.23266500;2023-08-12T07:19:58;21.30;99.90
13211;DHT22;6670;51.53087800;7.23266500;2023-08-12T07:22:26;21.20;99.90
13211;DHT22;6670;51.53087800;7.23266500;2023-08-12T07:24:58;21.30;99.90
13211;DHT22;6670;51.53087800;7.23266500;2023-08-12T07:27:27;21.20;99.90
13211;DHT22;6670;51.53087800;7.23266500;2023-08-12T07:29:55;21.20;99.90
13211;DHT22;6670;51.53087800;7.23266500;2023-08-12T07:32:25;21.30;99.90
13211;DHT22;6670;51.53087800;7.23266500;2023-08-12T07:34:54;21.30;99.90
13211;DHT22;6670;51.53087800;7.23266500;2023-08-12T07:37:23;21.30;99.90
13211;DHT22;6670;51.53087800;7.23266500;2023-08-12T07:39:51;21.30;99.90
13211;DHT22;6670;51.53087800;7.23266500;2023-08-12T07:42:19;21.40;99.90
13211;DHT22;6670;51.53087800;7.23266500;2023-08-12T07:44:46;21.50;99.90
13211;DHT22;6670;51.53087800;7.23266500;2023-08-12T07:47:17;21.40;99.90
13211;DHT22;6670;51.53087800;7.23266500;2023-08-12T07:49:45;21.40;99.90
13211;DHT22;6670;51.53087800;7.23266500;2023-08-12T07:52:12;21.40;99.90
13211;DHT22;6670;51.53087800;7.23266500;2023-08-12T07:54:43;21.40;99.90
13211;DHT22;6670;51.53087800;7.23266500;2023-08-12T07:57:10;21.40;99.90
13211;DHT22;6670;51.53087800;7.23266500;2023-08-12T07:59:38;21.40;99.90
13211;DHT22;6670;51.53087800;7.23266500;2023-08-12T08:02:06;21.40;99.90
13211;DHT22;6670;51.53087800;7.23266500;2023-08-12T08:04:33;21.30;99.90
13211;DHT22;6670;51.53087800;7.23266500;2023-08-12T08:07:01;21.40;99.90
13211;DHT22;6670;51.53087800;7.23266500;2023-08-12T08:09:28;21.50;99.90
13211;DHT22;6670;51.53087800;7.23266500;2023-08-12T08:11:57;21.60;99.90
13211;DHT22;6670;51.53087800;7.23266500;2023-08-12T08:14:25;21.70;99.90
13211;DHT22;6670;51.53087800;7.23266500;2023-08-12T08:16:59;21.70;99.90
13211;DHT22;6670;51.53087800;7.23266500;2023-08-12T08:19:27;21.80;99.90
13211;DHT22;6670;51.53087800;7.23266500;2023-08-12T08:21:54;21.80;99.90
13211;DHT22;6670;51.53087800;7.23266500;2023-08-12T08:24:22;21.80;99.90
13211;DHT22;6670;51.53087800;7.23266500;2023-08-12T08:26:49;21.80;99.90
13211;DHT22;6670;51.53087800;7.23266500;2023-08-12T08:29:18;21.80;99.90
13211;DHT22;6670;51.53087800;7.23266500;2023-08-12T08:31:45;21.80;99.90
13211;DHT22;6670;51.53087800;7.23266500;2023-08-12T08:34:13;21.70;99.90
13211;DHT22;6670;51.53087800;7.23266500;2023-08-12T08:36:40;21.70;99.90
13211;DHT22;6670;51.53087800;7.23266500;2023-08-12T08:39:08;21.70;99.90
13211;DHT22;6670;51.53087800;7.23266500;2023-08-12T08:41:38;21.70;99.90
13211;DHT22;6670;51.53087800;7.23266500;2023-08-12T08:44:08;21.70;99.90
13211;DHT22;6670;51.53087800;7.23266500;2023-08-12T08:46:37;21.70;99.90
13211;DHT22;6670;51.53087800;7.23266500;2023-08-12T08:49:05;21.60;99.90
13211;DHT22;6670;51.53087800;7.23266500;2023-08-12T08:51:33;21.60;99.90
13211;DHT22;6670;51.53087800;7.23266500;2023-08-12T08:54:02;21.70;99.90
13211;DHT22;6670;51.53087800;7.23266500;2023-08-12T08:56:31;21.70;99.90
13211;DHT22;6670;51.53087800;7.23266500;2023-08-12T08:58:59;21.80;99.90
13211;DHT22;6670;51.53087800;7.23266500;2023-08-12T09:01:27;21.70;99.90
13211;DHT22;6670;51.53087800;7.23266500;2023-08-12T09:04:00;21.70;99.90
13211;DHT22;6670;51.53087800;7.23266500;2023-08-12T09:06:29;21.80;99.90
13211;DHT22;6670;51.53087800;7.23266500;2023-08-12T09:08:58;21.70;99.90
13211;DHT22;6670;51.53087800;7.23266500;2023-08-12T09:11:29;21.70;99.90
13211;DHT22;6670;51.53087800;7.23266500;2023-08-12T09:14:00;21.80;99.90
13211;DHT22;6670;51.53087800;7.23266500;2023-08-12T09:16:27;21.80;99.90
13211;DHT22;6670;51.53087800;7.23266500;2023-08-12T09:18:55;21.80;99.90
13211;DHT22;6670;51.53087800;7.23266500;2023-08-12T09:21:27;21.80;99.90
13211;DHT22;6670;51.53087800;7.23266500;2023-08-12T09:23:55;21.90;99.90
13211;DHT22;6670;51.53087800;7.23266500;2023-08-12T09:26:23;21.80;99.90
13211;DHT22;6670;51.53087800;7.23266500;2023-08-12T09:28:51;21.80;99.90
13211;DHT22;6670;51.53087800;7.23266500;2023-08-12T09:31:23;21.80;99.90
13211;DHT22;6670;51.53087800;7.23266500;2023-08-12T09:33:51;21.70;99.90
13211;DHT22;6670;51.53087800;7.23266500;2023-08-12T09:36:21;21.70;99.90
13211;DHT22;6670;51.53087800;7.23266500;2023-08-12T09:38:50;21.80;99.90
13211;DHT22;6670;51.53087800;7.23266500;2023-08-12T09:41:18;21.80;99.90
13211;DHT22;6670;51.53087800;7.23266500;2023-08-12T09:43:46;21.90;99.90
13211;DHT22;6670;51.53087800;7.23266500;2023-08-12T09:46:13;22.00;99.90
13211;DHT22;6670;51.53087800;7.23266500;2023-08-12T09:48:41;22.00;99.90
13211;DHT22;6670;51.53087800;7.23266500;2023-08-12T09:51:09;21.90;99.90
13211;DHT22;6670;51.53087800;7.23266500;2023-08-12T09:53:36;21.90;99.90
13211;DHT22;6670;51.53087800;7.23266500;2023-08-12T09:56:07;21.90;99.90
13211;DHT22;6670;51.53087800;7.23266500;2023-08-12T09:58:36;21.90;99.90
13211;DHT22;6670;51.53087800;7.23266500;2023-08-12T10:01:04;21.90;99.90
13211;DHT22;6670;51.53087800;7.23266500;2023-08-12T10:03:34;21.80;99.90
13211;DHT22;6670;51.53087800;7.23266500;2023-08-12T10:06:01;21.80;99.90
13211;DHT22;6670;51.53087800;7.23266500;2023-08-12T10:08:31;21.90;99.90
13211;DHT22;6670;51.53087800;7.23266500;2023-08-12T10:10:59;21.90;99.90
13211;DHT22;6670;51.53087800;7.23266500;2023-08-12T10:13:28;22.00;99.90
13211;DHT22;6670;51.53087800;7.23266500;2023-08-12T10:15:56;22.00;99.90
13211;DHT22;6670;51.53087800;7.23266500;2023-08-12T10:18:24;21.90;99.90
13211;DHT22;6670;51.53087800;7.23266500;2023-08-12T10:20:52;22.00;99.90
13211;DHT22;6670;51.53087800;7.23266500;2023-08-12T10:23:21;22.10;99.90
13211;DHT22;6670;51.53087800;7.23266500;2023-08-12T10:25:51;22.10;99.90
13211;DHT22;6670;51.53087800;7.23266500;2023-08-12T10:28:20;22.10;99.90
13211;DHT22;6670;51.53087800;7.23266500;2023-08-12T10:30:51;22.20;99.90
13211;DHT22;6670;51.53087800;7.23266500;2023-08-12T10:33:19;22.20;99.90
13211;DHT22;6670;51.53087800;7.23266500;2023-08-12T10:35:48;22.30;99.90
13211;DHT22;6670;51.53087800;7.23266500;2023-08-12T10:38:18;22.30;99.90
13211;DHT22;6670;51.53087800;7.23266500;2023-08-12T10:40:46;22.10;99.90
13211;DHT22;6670;51.53087800;7.23266500;2023-08-12T10:43:14;22.10;99.90
13211;DHT22;6670;51.53087800;7.23266500;2023-08-12T10:45:43;22.20;99.90
13211;DHT22;6670;51.53087800;7.23266500;2023-08-12T10:48:17;22.10;99.90
13211;DHT22;6670;51.53087800;7.23266500;2023-08-12T10:50:53;22.10;99.90
13211;DHT22;6670;51.53087800;7.23266500;2023-08-12T10:53:25;22.10;99.90
13211;DHT22;6670;51.53087800;7.23266500;2023-08-12T10:55:56;22.00;99.90
13211;DHT22;6670;51.53087800;7.23266500;2023-08-12T10:58:26;22.00;99.90
13211;DHT22;6670;51.53087800;7.23266500;2023-08-12T11:00:55;22.00;99.90
13211;DHT22;6670;51.53087800;7.23266500;2023-08-12T11:03:24;21.80;99.90
13211;DHT22;6670;51.53087800;7.23266500;2023-08-12T11:05:53;21.70;99.90
13211;DHT22;6670;51.53087800;7.23266500;2023-08-12T11:08:26;21.70;99.90
13211;DHT22;6670;51.53087800;7.23266500;2023-08-12T11:10:55;21.70;99.90
13211;DHT22;6670;51.53087800;7.23266500;2023-08-12T11:13:27;21.70;99.90
13211;DHT22;6670;51.53087800;7.23266500;2023-08-12T11:16:06;21.80;99.90
13211;DHT22;6670;51.53087800;7.23266500;2023-08-12T11:18:36;21.90;99.90
13211;DHT22;6670;51.53087800;7.23266500;2023-08-12T11:21:04;22.00;99.90
13211;DHT22;6670;51.53087800;7.23266500;2023-08-12T11:23:32;22.00;99.90
13211;DHT22;6670;51.53087800;7.23266500;2023-08-12T11:26:00;22.10;99.90
13211;DHT22;6670;51.53087800;7.23266500;2023-08-12T11:28:28;22.10;99.90
13211;DHT22;6670;51.53087800;7.23266500;2023-08-12T11:30:56;22.20;99.90
13211;DHT22;6670;51.53087800;7.23266500;2023-08-12T11:33:24;22.10;99.90
13211;DHT22;6670;51.53087800;7.23266500;2023-08-12T11:35:54;22.00;99.90
13211;DHT22;6670;51.53087800;7.23266500;2023-08-12T11:38:21;21.90;99.90
13211;DHT22;6670;51.53087800;7.23266500;2023-08-12T11:40:50;21.90;99.90
13211;DHT22;6670;51.53087800;7.23266500;2023-08-12T11:43:21;22.00;99.90
13211;DHT22;6670;51.53087800;7.23266500;2023-08-12T11:45:48;22.00;99.90
13211;DHT22;6670;51.53087800;7.23266500;2023-08-12T11:48:16;22.10;99.90
13211;DHT22;6670;51.53087800;7.23266500;2023-08-12T11:50:43;22.10;99.90
13211;DHT22;6670;51.53087800;7.23266500;2023-08-12T11:53:12;22.10;99.90
13211;DHT22;6670;51.53087800;7.23266500;2023-08-12T11:55:40;22.10;99.90
13211;DHT22;6670;51.53087800;7.23266500;2023-08-12T11:58:07;22.20;99.90
13211;DHT22;6670;51.53087800;7.23266500;2023-08-12T12:00:35;22.20;99.90
13211;DHT22;6670;51.53087800;7.23266500;2023-08-12T12:03:03;22.20;99.90
13211;DHT22;6670;51.53087800;7.23266500;2023-08-12T12:05:32;22.30;99.90
13211;DHT22;6670;51.53087800;7.23266500;2023-08-12T12:08:00;22.40;99.90
13211;DHT22;6670;51.53087800;7.23266500;2023-08-12T12:10:31;22.40;99.90
13211;DHT22;6670;51.53087800;7.23266500;2023-08-12T12:13:00;22.40;99.90
13211;DHT22;6670;51.53087800;7.23266500;2023-08-12T12:15:27;22.50;99.90
13211;DHT22;6670;51.53087800;7.23266500;2023-08-12T12:17:55;22.50;99.90
13211;DHT22;6670;51.53087800;7.23266500;2023-08-12T12:20:23;22.40;99.90
13211;DHT22;6670;51.53087800;7.23266500;2023-08-12T12:22:51;22.50;99.90
13211;DHT22;6670;51.53087800;7.23266500;2023-08-12T12:25:19;22.50;99.90
13211;DHT22;6670;51.53087800;7.23266500;2023-08-12T12:27:47;22.50;99.90
13211;DHT22;6670;51.53087800;7.23266500;2023-08-12T12:30:16;22.40;99.90
13211;DHT22;6670;51.53087800;7.23266500;2023-08-12T12:32:45;22.50;99.90
13211;DHT22;6670;51.53087800;7.23266500;2023-08-12T12:35:14;22.50;99.90
13211;DHT22;6670;51.53087800;7.23266500;2023-08-12T12:37:42;22.50;99.90
13211;DHT22;6670;51.53087800;7.23266500;2023-08-12T12:40:10;22.50;99.90
13211;DHT22;6670;51.53087800;7.23266500;2023-08-12T12:42:38;22.40;99.90
13211;DHT22;6670;51.53087800;7.23266500;2023-08-12T12:45:08;22.40;99.90
13211;DHT22;6670;51.53087800;7.23266500;2023-08-12T12:47:38;22.30;99.90
13211;DHT22;6670;51.53087800;7.23266500;2023-08-12T12:50:15;22.20;99.90
13211;DHT22;6670;51.53087800;7.23266500;2023-08-12T12:52:53;21.90;99.90
13211;DHT22;6670;51.53087800;7.23266500;2023-08-12T12:55:20;21.90;99.90
13211;DHT22;6670;51.53087800;7.23266500;2023-08-12T12:57:47;21.70;99.90
13211;DHT22;6670;51.53087800;7.23266500;2023-08-12T13:00:16;21.50;99.90
13211;DHT22;6670;51.53087800;7.23266500;2023-08-12T13:02:44;21.20;99.90
13211;DHT22;6670;51.53087800;7.23266500;2023-08-12T13:05:11;21.10;99.90
13211;DHT22;6670;51.53087800;7.23266500;2023-08-12T13:07:39;21.10;99.90
13211;DHT22;6670;51.53087800;7.23266500;2023-08-12T13:10:07;21.10;99.90
13211;DHT22;6670;51.53087800;7.23266500;2023-08-12T13:12:35;21.10;99.90
13211;DHT22;6670;51.53087800;7.23266500;2023-08-12T13:15:05;21.20;99.90
13211;DHT22;6670;51.53087800;7.23266500;2023-08-12T13:17:34;21.20;99.90
13211;DHT22;6670;51.53087800;7.23266500;2023-08-12T13:20:10;21.20;99.90
13211;DHT22;6670;51.53087800;7.23266500;2023-08-12T13:22:38;21.30;99.90
13211;DHT22;6670;51.53087800;7.23266500;2023-08-12T13:25:06;21.40;99.90
13211;DHT22;6670;51.53087800;7.23266500;2023-08-12T13:27:41;21.40;99.90
13211;DHT22;6670;51.53087800;7.23266500;2023-08-12T13:30:09;21.50;99.90
13211;DHT22;6670;51.53087800;7.23266500;2023-08-12T13:32:52;21.40;99.90
13211;DHT22;6670;51.53087800;7.23266500;2023-08-12T13:35:21;21.40;99.90
13211;DHT22;6670;51.53087800;7.23266500;2023-08-12T13:37:49;21.40;99.90
13211;DHT22;6670;51.53087800;7.23266500;2023-08-12T13:40:17;21.50;99.90
13211;DHT22;6670;51.53087800;7.23266500;2023-08-12T13:42:44;21.70;99.90